createdAt,value
2023-04-14T00:00:17.190Z,58.83
2023-04-14T00:02:50.597Z,58.10
2023-04-14T00:05:22.937Z,57.52
2023-04-14T00:07:54.910Z,56.86
2023-04-14T00:10:29.560Z,57.51
2023-04-14T00:13:04.493Z,57.83
2023-04-14T00:15:37.398Z,57.65
2023-04-14T00:18:11.203Z,56.77
2023-04-14T00:20:44.607Z,55.76
2023-04-14T00:23:17.598Z,55.60
2023-04-14T00:25:52.936Z,55.75
2023-04-14T00:28:25.800Z,54.83
2023-04-14T00:30:58.208Z,54.91
2023-04-14T00:33:30.381Z,56.30
2023-04-14T00:36:02.349Z,55.50
2023-04-14T00:38:35.139Z,55.77
2023-04-14T00:41:07.291Z,55.67
2023-04-14T00:43:41.783Z,55.53
2023-04-14T00:46:15.568Z,54.20
2023-04-14T00:48:49.392Z,54.75
2023-04-14T00:51:21.751Z,53.63
2023-04-14T00:53:57.470Z,53.24
2023-04-14T00:56:30.584Z,54.46
2023-04-14T00:59:05.361Z,54.02
2023-04-14T01:01:40.131Z,54.60
2023-04-14T01:04:14.712Z,54.29
2023-04-14T01:06:47.662Z,53.21
2023-04-14T01:09:20.986Z,52.68
2023-04-14T01:11:58.175Z,51.36
2023-04-14T01:14:52.573Z,51.17
2023-04-14T01:17:37.147Z,50.61
2023-04-14T01:20:16.949Z,51.07
2023-04-14T01:23:25.893Z,50.93
2023-04-14T01:26:13.800Z,50.68
2023-04-14T01:28:49.336Z,50.75
2023-04-14T01:31:23.154Z,50.38
2023-04-14T01:34:17.190Z,51.30
2023-04-14T01:37:04.599Z,52.26
2023-04-14T01:39:45.189Z,53.00
2023-04-14T01:42:23.945Z,52.43
2023-04-14T01:45:00.408Z,52.54
2023-04-14T01:47:33.613Z,52.25
2023-04-14T01:50:08.314Z,53.22
2023-04-14T01:52:43.897Z,53.11
2023-04-14T01:55:19.209Z,53.04
2023-04-14T01:57:54.567Z,52.64
2023-04-14T02:00:28.886Z,52.54
2023-04-14T02:03:09.479Z,52.96
2023-04-14T02:05:44.237Z,53.07
2023-04-14T02:08:19.578Z,52.10
2023-04-14T02:10:55.366Z,52.49
2023-04-14T02:13:31.647Z,53.25
2023-04-14T02:16:05.480Z,53.81
2023-04-14T02:18:38.745Z,54.10
2023-04-14T02:21:13.281Z,53.70
2023-04-14T02:23:46.998Z,53.77
2023-04-14T02:26:27.792Z,52.81
2023-04-14T02:29:16.071Z,51.96
2023-04-14T02:31:55.563Z,51.79
2023-04-14T02:34:36.190Z,50.35
2023-04-14T02:37:17.134Z,49.82
2023-04-14T02:40:03.357Z,48.53
2023-04-14T02:42:41.030Z,49.24
2023-04-14T02:45:30.091Z,47.77
2023-04-14T02:48:10.410Z,47.65
2023-04-14T02:50:49.254Z,47.37
2023-04-14T02:53:28.933Z,46.98
2023-04-14T02:56:11.731Z,47.25
2023-04-14T02:58:49.988Z,47.11
2023-04-14T03:01:21.489Z,47.04
2023-04-14T03:03:55.586Z,47.59
2023-04-14T03:06:27.432Z,47.13
2023-04-14T03:09:01.476Z,46.91
2023-04-14T03:11:34.570Z,47.10
2023-04-14T03:14:05.710Z,45.97
2023-04-14T03:16:40.636Z,46.50
2023-04-14T03:19:13.592Z,45.24
2023-04-14T03:21:48.421Z,44.85
2023-04-14T03:24:25.568Z,44.15
2023-04-14T03:27:01.107Z,43.15
2023-04-14T03:29:39.667Z,42.34
2023-04-14T03:32:10.717Z,42.41
2023-04-14T03:34:44.625Z,41.96
2023-04-14T03:37:19.132Z,41.92
2023-04-14T03:39:52.324Z,41.63
2023-04-14T03:42:22.991Z,42.83
2023-04-14T03:44:55.468Z,42.48
2023-04-14T03:47:25.992Z,41.87
2023-04-14T03:49:58.654Z,40.54
2023-04-14T03:52:32.857Z,39.91
2023-04-14T03:55:07.944Z,38.95
2023-04-14T03:57:41.304Z,37.93
2023-04-14T04:00:14.331Z,37.51
2023-04-14T04:02:45.884Z,37.87
2023-04-14T04:05:16.343Z,36.68
2023-04-14T04:07:47.721Z,35.77
2023-04-14T04:10:18.468Z,36.25
2023-04-14T04:12:51.196Z,36.95
2023-04-14T04:15:21.047Z,37.50
2023-04-14T04:17:52.990Z,37.09
2023-04-14T04:20:23.672Z,36.13
2023-04-14T04:22:57.059Z,36.31
2023-04-14T04:25:26.722Z,35.43
2023-04-14T04:28:06.117Z,35.18
2023-04-14T04:30:42.042Z,34.11
2023-04-14T04:33:13.073Z,34.88
2023-04-14T04:35:43.832Z,34.45
2023-04-14T04:38:13.593Z,34.60
2023-04-14T04:40:46.373Z,32.84
2023-04-14T04:43:24.499Z,33.83
2023-04-14T04:46:16.481Z,33.16
2023-04-14T04:48:47.033Z,33.61
2023-04-14T04:51:16.591Z,34.08
2023-04-14T04:53:46.158Z,33.56
2023-04-14T04:56:15.846Z,33.21
2023-04-14T04:58:45.270Z,32.87
2023-04-14T05:01:16.240Z,31.92
2023-04-14T05:03:47.257Z,28.70
2023-04-14T05:06:17.923Z,29.07
2023-04-14T05:08:47.469Z,28.93
2023-04-14T05:11:17.021Z,28.35
2023-04-14T05:13:46.665Z,28.75
2023-04-14T05:16:16.895Z,28.18
2023-04-14T05:18:46.473Z,27.43
2023-04-14T05:21:16.940Z,27.34
2023-04-14T05:23:47.951Z,27.91
2023-04-14T05:28:51.034Z,27.61
2023-04-14T05:31:21.948Z,27.85
2023-04-14T05:33:51.825Z,26.67
2023-04-14T05:36:21.841Z,27.16
2023-04-14T05:38:51.158Z,27.31
2023-04-14T05:41:23.230Z,26.73
2023-04-14T05:43:52.723Z,27.27
2023-04-14T05:46:22.200Z,27.22
2023-04-14T05:48:51.683Z,27.37
2023-04-14T05:52:10.260Z,26.66
2023-04-14T05:54:41.312Z,26.96
2023-04-14T05:57:12.293Z,26.70
2023-04-14T05:59:41.478Z,26.04
2023-04-14T06:02:11.251Z,26.56
2023-04-14T06:04:40.485Z,26.73
2023-04-14T06:07:09.994Z,27.25
2023-04-14T06:09:39.555Z,27.62
2023-04-14T06:12:08.600Z,26.53
2023-04-14T06:14:38.306Z,26.70
2023-04-14T06:17:08.452Z,26.82
2023-04-14T06:19:38.795Z,26.37
2023-04-14T06:22:09.476Z,26.69
2023-04-14T06:24:38.983Z,26.75
2023-04-14T06:27:08.952Z,25.71
2023-04-14T06:29:38.431Z,27.24
2023-04-14T06:32:11.617Z,26.65
2023-04-14T06:34:41.548Z,26.81
2023-04-14T06:37:11.463Z,26.65
2023-04-14T06:39:40.844Z,26.98
2023-04-14T06:42:15.356Z,25.88
2023-04-14T06:44:55.301Z,27.08
2023-04-14T06:47:31.626Z,26.06
2023-04-14T06:50:02.371Z,26.29
2023-04-14T06:52:33.074Z,26.61
2023-04-14T06:55:05.228Z,25.31
2023-04-14T06:57:44.437Z,25.07
2023-04-14T07:00:29.776Z,23.76
2023-04-14T07:03:15.109Z,24.42
2023-04-14T07:06:01.021Z,25.08
2023-04-14T07:08:36.268Z,24.48
2023-04-14T07:11:09.494Z,22.67
2023-04-14T07:13:40.825Z,22.46
2023-04-14T07:16:10.765Z,22.72
2023-04-14T07:18:40.118Z,22.50
2023-04-14T07:21:09.324Z,23.46
2023-04-14T07:23:39.050Z,23.71
2023-04-14T07:26:08.447Z,23.50
2023-04-14T07:28:38.596Z,22.91
2023-04-14T07:31:12.523Z,23.51
2023-04-14T07:33:42.105Z,24.12
2023-04-14T07:36:11.914Z,23.05
2023-04-14T07:38:41.861Z,23.60
2023-04-14T07:41:11.477Z,22.28
2023-04-14T07:43:41.674Z,23.83
2023-04-14T07:46:10.891Z,22.21
2023-04-14T07:48:47.877Z,22.66
2023-04-14T07:51:18.609Z,21.65
2023-04-14T07:53:48.333Z,21.68
2023-04-14T07:56:17.816Z,21.39
2023-04-14T07:58:47.533Z,21.96
2023-04-14T08:01:21.402Z,22.95
2023-04-14T08:03:51.961Z,21.41
2023-04-14T08:06:22.329Z,21.54
2023-04-14T08:08:53.141Z,21.66
2023-04-14T08:11:23.083Z,20.99
2023-04-14T08:13:53.947Z,20.17
2023-04-14T08:16:24.088Z,20.57
2023-04-14T08:18:55.833Z,20.77
2023-04-14T08:21:29.121Z,20.18
2023-04-14T08:23:58.573Z,21.20
2023-04-14T08:26:30.854Z,19.36
2023-04-14T08:29:00.497Z,19.20
2023-04-14T08:31:30.375Z,19.20
2023-04-14T08:33:59.399Z,19.77
2023-04-14T08:36:29.621Z,19.08
2023-04-14T08:39:01.409Z,19.61
2023-04-14T08:41:35.809Z,19.26
2023-04-14T08:44:05.064Z,19.35
2023-04-14T08:46:36.033Z,18.45
2023-04-14T08:49:08.089Z,18.60
2023-04-14T08:51:44.196Z,18.49
2023-04-14T08:54:14.463Z,18.69
2023-04-14T08:56:44.972Z,18.47
2023-04-14T08:59:14.449Z,17.25
2023-04-14T09:01:44.007Z,18.00
2023-04-14T09:04:15.603Z,18.30
2023-04-14T09:06:45.032Z,17.86
2023-04-14T09:09:15.271Z,18.27
2023-04-14T09:11:46.254Z,18.80
2023-04-14T09:14:16.884Z,18.49
2023-04-14T09:16:49.784Z,18.06
2023-04-14T09:19:19.417Z,18.62
2023-04-14T09:21:51.917Z,18.36
2023-04-14T09:24:32.417Z,18.16
2023-04-14T09:30:05.229Z,17.11
2023-04-14T09:32:35.101Z,18.02
2023-04-14T09:35:04.345Z,17.82
2023-04-14T09:37:47.584Z,16.92
2023-04-14T09:40:30.241Z,18.30
2023-04-14T09:43:00.126Z,15.95
2023-04-14T09:45:46.194Z,16.06
2023-04-14T09:48:15.867Z,17.07
2023-04-14T09:51:07.657Z,15.42
2023-04-14T09:53:42.367Z,16.65
2023-04-14T09:56:13.580Z,16.42
2023-04-14T09:58:45.782Z,16.63
2023-04-14T10:01:17.833Z,16.71
2023-04-14T10:03:51.229Z,16.82
2023-04-14T10:06:24.718Z,16.98
2023-04-14T10:08:57.015Z,17.55
2023-04-14T10:11:28.596Z,17.45
2023-04-14T10:14:00.393Z,18.06
2023-04-14T10:16:30.456Z,17.98
2023-04-14T10:19:00.480Z,15.95
2023-04-14T10:21:30.548Z,17.48
2023-04-14T10:24:00.007Z,18.44
2023-04-14T10:26:31.150Z,17.33
2023-04-14T10:29:03.345Z,17.28
2023-04-14T10:31:39.916Z,17.98
2023-04-14T10:34:10.338Z,18.19
2023-04-14T10:36:40.084Z,18.18
2023-04-14T10:39:11.131Z,17.86
2023-04-14T10:41:50.919Z,16.45
2023-04-14T10:44:33.785Z,17.15
2023-04-14T10:47:06.072Z,16.26
2023-04-14T10:49:37.917Z,17.39
2023-04-14T10:52:08.746Z,17.98
2023-04-14T10:55:01.873Z,18.05
2023-04-14T10:57:32.013Z,17.00
2023-04-14T11:00:01.667Z,16.49
2023-04-14T11:02:32.099Z,16.70
2023-04-14T11:05:09.677Z,17.08
2023-04-14T11:07:52.794Z,17.38
2023-04-14T11:10:22.332Z,17.27
2023-04-14T11:13:02.653Z,18.34
2023-04-14T11:15:49.146Z,18.36
2023-04-14T11:18:35.670Z,17.95
2023-04-14T11:21:08.868Z,18.26
2023-04-14T11:23:39.635Z,17.15
2023-04-14T11:26:11.173Z,17.66
2023-04-14T11:28:43.649Z,18.21
2023-04-14T11:31:16.097Z,18.75
2023-04-14T11:33:46.134Z,17.91
2023-04-14T11:36:15.327Z,18.29
2023-04-14T11:38:44.818Z,18.21
2023-04-14T11:41:16.914Z,17.35
2023-04-14T11:43:47.871Z,19.46
2023-04-14T11:46:17.434Z,18.56
2023-04-14T11:48:46.741Z,18.12
2023-04-14T11:51:16.350Z,18.56
2023-04-14T11:53:45.405Z,19.50
2023-04-14T11:56:15.941Z,19.17
2023-04-14T11:58:45.233Z,18.37
2023-04-14T12:01:15.814Z,18.70
2023-04-14T12:03:45.486Z,18.35
2023-04-14T12:06:14.681Z,20.09
2023-04-14T12:08:44.762Z,19.10
2023-04-14T12:11:17.539Z,19.15
2023-04-14T12:13:48.612Z,19.76
2023-04-14T12:16:18.651Z,19.33
2023-04-14T12:18:48.090Z,20.01
2023-04-14T12:21:21.093Z,19.74
2023-04-14T12:23:50.974Z,20.46
2023-04-14T12:26:21.775Z,20.45
2023-04-14T12:28:59.019Z,20.45
2023-04-14T12:31:31.422Z,21.28
2023-04-14T12:34:04.451Z,21.08
2023-04-14T12:36:48.785Z,21.34
2023-04-14T12:39:20.689Z,21.42
2023-04-14T12:41:50.593Z,21.66
2023-04-14T12:44:21.552Z,22.99
2023-04-14T12:46:52.820Z,23.32
2023-04-14T12:49:39.333Z,23.24
2023-04-14T12:52:09.323Z,22.23
2023-04-14T12:54:54.608Z,22.10
2023-04-14T12:57:23.982Z,21.94
2023-04-14T12:59:53.332Z,20.76
2023-04-14T13:02:23.680Z,20.32
2023-04-14T13:04:52.886Z,20.12
2023-04-14T13:07:22.644Z,20.49
2023-04-14T13:09:53.350Z,21.11
2023-04-14T13:12:23.203Z,20.12
2023-04-14T13:14:54.197Z,21.49
2023-04-14T13:17:23.535Z,21.10
2023-04-14T13:19:54.023Z,20.73
2023-04-14T13:22:23.083Z,20.95
2023-04-14T13:24:52.622Z,21.25
2023-04-14T13:27:21.816Z,21.10
2023-04-14T13:29:51.057Z,20.40
2023-04-14T13:32:20.289Z,20.83
2023-04-14T13:34:50.744Z,20.95
2023-04-14T13:37:20.664Z,20.72
2023-04-14T13:39:49.713Z,21.50
2023-04-14T13:42:19.437Z,21.26
2023-04-14T13:44:49.204Z,21.62
2023-04-14T13:47:20.062Z,21.25
2023-04-14T13:49:49.251Z,20.91
2023-04-14T13:52:18.427Z,21.02
2023-04-14T13:54:47.708Z,21.26
2023-04-14T13:57:17.324Z,22.04
2023-04-14T13:59:46.436Z,22.26
2023-04-14T14:02:15.583Z,23.06
2023-04-14T14:04:45.153Z,23.16
2023-04-14T14:07:14.366Z,23.22
2023-04-14T14:09:45.493Z,23.72
2023-04-14T14:12:14.573Z,24.17
2023-04-14T14:14:43.652Z,23.95
2023-04-14T14:17:13.280Z,24.01
2023-04-14T14:19:42.377Z,24.25
2023-04-14T14:22:11.706Z,23.98
2023-04-14T14:24:42.176Z,23.71
2023-04-14T14:27:11.515Z,23.74
2023-04-14T14:29:40.609Z,23.97
2023-04-14T14:32:10.101Z,24.68
2023-04-14T14:34:40.038Z,25.42
2023-04-14T14:37:09.456Z,26.41
2023-04-14T14:39:38.404Z,27.27
2023-04-14T14:42:08.466Z,27.62
2023-04-14T14:44:39.745Z,27.49
2023-04-14T14:47:09.323Z,27.72
2023-04-14T14:49:41.354Z,28.13
2023-04-14T14:52:18.546Z,27.77
2023-04-14T14:54:47.267Z,27.78
2023-04-14T14:57:16.352Z,28.11
2023-04-14T14:59:45.623Z,28.53
2023-04-14T15:02:14.882Z,29.22
2023-04-14T15:04:44.092Z,29.97
2023-04-14T15:07:14.202Z,30.37
2023-04-14T15:09:43.304Z,30.89
2023-04-14T15:12:12.475Z,31.58
2023-04-14T15:14:41.615Z,30.25
2023-04-14T15:17:10.979Z,30.06
2023-04-14T15:19:41.431Z,30.54
2023-04-14T15:22:11.308Z,31.33
2023-04-14T15:24:40.363Z,30.70
2023-04-14T15:27:09.655Z,30.19
2023-04-14T15:29:38.862Z,30.44
2023-04-14T15:32:08.436Z,31.67
2023-04-14T15:34:37.538Z,30.89
2023-04-14T15:37:07.038Z,31.15
2023-04-14T15:39:38.295Z,30.34
2023-04-14T15:42:07.353Z,30.93
2023-04-14T15:44:36.370Z,31.67
2023-04-14T15:47:06.301Z,30.58
2023-04-14T15:49:35.507Z,30.88
2023-04-14T15:52:04.503Z,32.54
2023-04-14T15:54:35.205Z,31.90
2023-04-14T15:57:05.212Z,32.02
2023-04-14T15:59:34.371Z,32.28
2023-04-14T16:02:04.471Z,30.94
2023-04-14T16:04:33.570Z,30.84
2023-04-14T16:07:03.619Z,31.66
2023-04-14T16:09:33.247Z,30.70
2023-04-14T16:12:02.369Z,30.94
2023-04-14T16:14:36.222Z,31.78
2023-04-14T16:17:05.283Z,31.78
2023-04-14T16:19:34.338Z,31.50
2023-04-14T16:22:03.950Z,31.90
2023-04-14T16:24:33.108Z,31.53
2023-04-14T16:27:02.468Z,31.77
2023-04-14T16:29:32.400Z,32.21
2023-04-14T16:32:01.298Z,32.29
2023-04-14T16:34:30.526Z,32.28
2023-04-14T16:36:59.796Z,31.92
2023-04-14T16:39:29.882Z,31.92
2023-04-14T16:41:59.716Z,32.09
2023-04-14T16:44:28.582Z,31.77
2023-04-14T16:46:57.877Z,32.42
2023-04-14T16:49:27.118Z,31.94
2023-04-14T16:51:58.734Z,32.19
2023-04-14T16:54:29.885Z,32.35
2023-04-14T16:56:59.502Z,33.04
2023-04-14T16:59:28.480Z,33.41
2023-04-14T17:01:57.868Z,33.91
2023-04-14T17:04:27.849Z,34.29
2023-04-14T17:06:57.698Z,35.14
2023-04-14T17:09:26.749Z,35.07
2023-04-14T17:11:57.807Z,34.69
2023-04-14T17:14:27.134Z,34.82
2023-04-14T17:16:56.230Z,35.53
2023-04-14T17:19:26.114Z,36.80
2023-04-14T17:21:55.105Z,36.41
2023-04-14T17:24:24.273Z,36.35
2023-04-14T17:26:53.530Z,36.77
2023-04-14T17:29:22.802Z,36.96
2023-04-14T17:31:51.911Z,37.64
2023-04-14T17:34:21.850Z,37.83
2023-04-14T17:36:51.867Z,38.29
2023-04-14T17:39:27.528Z,38.66
2023-04-14T17:41:58.277Z,39.60
2023-04-14T17:44:37.390Z,39.23
2023-04-14T17:47:13.867Z,39.83
2023-04-14T17:49:46.038Z,40.04
2023-04-14T17:52:22.890Z,40.31
2023-04-14T17:54:52.892Z,41.17
2023-04-14T17:57:22.081Z,40.99
2023-04-14T17:59:50.963Z,41.29
2023-04-14T18:02:20.825Z,40.88
2023-04-14T18:04:49.813Z,41.06
2023-04-14T18:07:19.835Z,41.03
2023-04-14T18:09:49.237Z,41.33
2023-04-14T18:12:18.095Z,41.57
2023-04-14T18:14:47.545Z,41.03
2023-04-14T18:17:17.028Z,41.76
2023-04-14T18:19:46.716Z,40.84
2023-04-14T18:22:16.108Z,40.59
2023-04-14T18:29:50.517Z,41.73
2023-04-14T18:32:19.834Z,43.31
2023-04-14T18:34:49.098Z,43.77
2023-04-14T18:37:18.239Z,43.58
2023-04-14T18:39:47.561Z,43.35
2023-04-14T18:42:16.616Z,43.58
2023-04-14T18:44:45.907Z,44.17
2023-04-14T18:47:15.164Z,44.67
2023-04-14T18:49:44.539Z,44.56
2023-04-14T18:52:14.019Z,44.22
2023-04-14T18:54:42.907Z,44.44
2023-04-14T18:57:12.676Z,44.56
2023-04-14T18:59:41.969Z,44.31
2023-04-14T19:02:14.335Z,44.68
2023-04-14T19:04:43.847Z,45.13
2023-04-14T19:07:13.001Z,44.51
2023-04-14T19:09:42.859Z,45.49
2023-04-14T19:12:21.734Z,45.27
2023-04-14T19:14:56.734Z,45.60
2023-04-14T19:17:25.843Z,44.72
2023-04-14T19:19:54.779Z,44.93
2023-04-14T19:22:24.091Z,46.35
2023-04-14T19:24:53.432Z,46.29
2023-04-14T19:27:22.563Z,46.13
2023-04-14T19:29:51.859Z,46.12
2023-04-14T19:32:21.283Z,45.73
2023-04-14T19:34:50.486Z,48.33
2023-04-14T19:37:19.641Z,47.10
2023-04-14T19:39:48.676Z,47.63
2023-04-14T19:42:18.188Z,46.53
2023-04-14T19:44:47.710Z,46.99
2023-04-14T19:47:16.700Z,47.00
2023-04-14T19:49:46.092Z,47.21
2023-04-14T19:52:15.174Z,48.34
2023-04-14T19:54:44.497Z,47.93
2023-04-14T19:57:13.637Z,47.80
2023-04-14T19:59:43.706Z,47.85
2023-04-14T20:02:14.483Z,47.49
2023-04-14T20:04:46.790Z,47.73
2023-04-14T20:07:18.104Z,48.18
2023-04-14T20:09:48.498Z,47.98
2023-04-14T20:12:19.284Z,48.21
2023-04-14T20:14:49.785Z,46.88
2023-04-14T20:17:22.845Z,46.25
2023-04-14T20:19:54.037Z,47.86
2023-04-14T20:22:25.264Z,48.22
2023-04-14T20:24:56.326Z,48.31
2023-04-14T20:27:27.013Z,48.37
2023-04-14T20:29:57.282Z,48.51
2023-04-14T20:32:30.458Z,48.47
2023-04-14T20:35:03.417Z,48.54
2023-04-14T20:37:35.929Z,48.61
2023-04-14T20:40:10.179Z,47.84
2023-04-14T20:42:42.682Z,48.25
2023-04-14T20:45:14.045Z,47.96
2023-04-14T20:47:46.508Z,48.87
2023-04-14T20:50:19.698Z,48.49
2023-04-14T20:52:52.998Z,47.87
2023-04-14T20:55:25.584Z,48.33
2023-04-14T20:57:57.387Z,48.46
2023-04-14T21:00:29.312Z,48.42
2023-04-14T21:03:03.819Z,48.29
2023-04-14T21:05:36.878Z,48.63
2023-04-14T21:08:10.137Z,49.29
2023-04-14T21:11:15.241Z,49.05
2023-04-14T21:15:29.116Z,50.34
2023-04-14T21:16:28.841Z,51.19
2023-04-14T21:19:00.622Z,50.84
2023-04-14T21:21:35.399Z,49.88
2023-04-14T21:24:07.492Z,49.67
2023-04-14T21:26:39.458Z,49.53
2023-04-14T21:29:13.456Z,51.19
2023-04-14T21:31:45.313Z,50.49
2023-04-14T21:34:19.449Z,50.22
2023-04-14T21:36:51.820Z,49.55
2023-04-14T21:39:24.136Z,49.01
2023-04-14T21:41:56.488Z,49.45
2023-04-14T21:44:27.967Z,49.75
2023-04-14T21:47:01.380Z,50.66
2023-04-14T21:49:33.842Z,50.82
2023-04-14T21:52:05.064Z,51.42
2023-04-14T21:54:37.460Z,51.40
2023-04-14T21:57:11.755Z,51.32
2023-04-14T21:59:44.138Z,51.37
2023-04-14T22:02:16.716Z,50.99
2023-04-14T22:04:48.807Z,48.97
2023-04-14T22:07:20.825Z,48.33
2023-04-14T22:09:53.182Z,43.46
2023-04-14T22:12:25.338Z,43.70
2023-04-14T22:14:57.808Z,43.70
2023-04-14T22:17:30.915Z,44.86
2023-04-14T22:20:02.662Z,43.40
2023-04-14T22:22:33.581Z,42.69
2023-04-14T22:25:07.781Z,41.76
2023-04-14T22:27:40.349Z,41.71
2023-04-14T22:30:12.630Z,41.46
2023-04-14T22:32:44.708Z,41.23
2023-04-14T22:35:19.155Z,40.42
2023-04-14T22:37:51.426Z,40.12
2023-04-14T22:40:23.722Z,39.79
2023-04-14T22:42:57.189Z,40.27
2023-04-14T22:45:28.908Z,39.93
2023-04-14T22:48:00.858Z,39.89
2023-04-14T22:50:37.018Z,39.84
2023-04-14T22:53:09.677Z,39.37
2023-04-14T22:55:42.967Z,39.62
2023-04-14T22:58:19.487Z,39.64
2023-04-14T23:00:51.842Z,39.78
2023-04-14T23:03:25.152Z,39.69
2023-04-14T23:05:58.285Z,40.22
2023-04-14T23:08:30.867Z,39.58
2023-04-14T23:11:03.795Z,39.60
2023-04-14T23:13:38.196Z,40.13
2023-04-14T23:16:12.582Z,40.64
2023-04-14T23:18:45.453Z,40.32
2023-04-14T23:21:18.189Z,40.33
2023-04-14T23:23:51.338Z,40.44
2023-04-14T23:26:24.654Z,40.35
2023-04-14T23:28:56.728Z,40.43
2023-04-14T23:31:33.116Z,39.90
2023-04-14T23:34:04.476Z,40.83
2023-04-14T23:36:37.709Z,41.32
2023-04-14T23:39:10.223Z,42.00
2023-04-14T23:41:42.744Z,41.89
2023-04-14T23:44:13.622Z,42.49
2023-04-14T23:46:46.398Z,43.39
2023-04-14T23:49:23.873Z,43.66
2023-04-14T23:52:06.592Z,42.91
2023-04-14T23:54:39.870Z,43.45
2023-04-14T23:57:11.995Z,42.94
2023-04-14T23:59:44.108Z,43.38
